createdAt,value
2022-09-12T00:04:48.713Z,2.47
2022-09-12T00:09:52.916Z,2.17
2022-09-12T00:14:56.653Z,2.13
2022-09-12T00:19:59.740Z,2.38
2022-09-12T00:25:04.441Z,2.73
2022-09-12T00:30:07.709Z,3.22
2022-09-12T00:35:10.746Z,2.60
2022-09-12T00:40:15.143Z,2.77
2022-09-12T00:45:22.224Z,2.45
2022-09-12T00:50:25.875Z,2.90
2022-09-12T00:55:33.535Z,3.20
2022-09-12T01:00:36.279Z,2.33
2022-09-12T01:05:41.121Z,3.00
2022-09-12T01:10:45.289Z,2.63
2022-09-12T01:15:47.993Z,2.00
2022-09-12T01:20:55.353Z,2.38
2022-09-12T01:26:13.042Z,2.67
2022-09-12T01:31:19.698Z,2.78
2022-09-12T01:36:30.611Z,2.75
2022-09-12T01:41:41.200Z,2.08
2022-09-12T01:46:49.126Z,2.33
2022-09-12T01:51:56.963Z,1.70
2022-09-12T01:57:01.576Z,2.38
2022-09-12T02:02:07.415Z,3.15
2022-09-12T02:07:20.908Z,3.00
2022-09-12T02:12:26.466Z,3.30
2022-09-12T02:17:31.337Z,2.53
2022-09-12T02:22:36.829Z,3.17
2022-09-12T02:27:41.469Z,2.75
2022-09-12T02:32:51.097Z,3.17
2022-09-12T02:37:58.367Z,3.20
2022-09-12T02:43:01.274Z,2.92
2022-09-12T02:48:07.045Z,3.00
2022-09-12T02:53:10.680Z,2.92
2022-09-12T02:58:17.311Z,2.17
2022-09-12T03:03:33.281Z,2.50
2022-09-12T03:08:47.849Z,2.20
2022-09-12T03:13:54.264Z,2.47
2022-09-12T03:19:03.026Z,2.20
2022-09-12T03:24:11.164Z,2.17
2022-09-12T03:29:14.322Z,2.72
2022-09-12T03:34:18.348Z,2.13
2022-09-12T03:44:24.124Z,2.25
2022-09-12T03:49:28.085Z,2.20
2022-09-12T03:54:30.782Z,1.63
2022-09-12T03:59:33.889Z,1.80
2022-09-12T04:04:38.026Z,2.20
2022-09-12T04:09:41.031Z,1.77
2022-09-12T04:14:43.793Z,2.30
2022-09-12T04:19:48.064Z,2.17
2022-09-12T04:24:50.690Z,2.20
2022-09-12T04:29:55.005Z,2.17
2022-09-12T04:34:59.392Z,2.17
2022-09-12T04:40:02.057Z,2.15
2022-09-12T04:45:06.293Z,1.90
2022-09-12T04:55:12.947Z,2.25
2022-09-12T05:00:17.240Z,2.60
2022-09-12T05:05:19.944Z,2.30
2022-09-12T05:10:24.470Z,3.08
2022-09-12T05:15:27.155Z,2.08
2022-09-12T05:20:29.797Z,2.17
2022-09-12T05:25:33.890Z,3.25
2022-09-12T05:30:36.497Z,2.10
2022-09-12T05:35:39.275Z,2.20
2022-09-12T05:40:46.285Z,2.75
2022-09-12T05:50:51.354Z,2.60
2022-09-12T05:56:04.094Z,3.00
2022-09-12T06:01:08.123Z,2.47
2022-09-12T06:06:13.568Z,2.75
2022-09-12T06:11:18.239Z,2.85
2022-09-12T06:16:22.391Z,2.70
2022-09-12T06:21:26.530Z,2.30
2022-09-12T06:26:31.075Z,2.88
2022-09-12T06:31:34.462Z,2.33
2022-09-12T06:36:38.631Z,2.00
2022-09-12T06:41:44.216Z,2.30
2022-09-12T06:46:47.212Z,2.38
2022-09-12T06:51:50.220Z,2.27
2022-09-12T06:56:54.397Z,1.98
2022-09-12T07:01:57.334Z,2.38
2022-09-12T07:07:01.371Z,2.50
2022-09-12T07:12:06.253Z,2.50
2022-09-12T07:17:09.467Z,2.30
2022-09-12T07:22:12.597Z,2.53
2022-09-12T07:27:16.632Z,2.60
2022-09-12T07:32:19.270Z,3.10
2022-09-12T07:37:24.203Z,2.30
2022-09-12T07:42:28.239Z,1.95
2022-09-12T07:47:31.053Z,8.88
2022-09-12T07:52:33.734Z,2.10
2022-09-12T07:57:37.777Z,2.10
2022-09-12T08:02:40.427Z,2.25
2022-09-12T08:07:43.605Z,2.88
2022-09-12T08:12:47.766Z,2.20
2022-09-12T08:17:50.461Z,2.08
2022-09-12T08:22:53.158Z,2.17
2022-09-12T08:27:57.242Z,2.05
2022-09-12T08:33:00.398Z,2.00
2022-09-12T08:38:03.084Z,2.53
2022-09-12T08:43:09.101Z,2.00
2022-09-12T08:48:13.116Z,2.28
2022-09-12T08:53:17.623Z,2.05
2022-09-12T08:58:24.136Z,2.10
2022-09-12T09:03:31.470Z,1.95
2022-09-12T09:08:44.757Z,2.00
2022-09-12T09:14:14.992Z,2.10
2022-09-12T09:19:20.392Z,1.98
2022-09-12T09:24:25.125Z,2.10
2022-09-12T09:29:30.902Z,2.30
2022-09-12T09:34:33.780Z,2.20
2022-09-12T09:39:42.494Z,2.13
2022-09-12T09:44:49.109Z,2.20
2022-09-12T09:49:52.056Z,2.20
2022-09-12T09:54:57.598Z,2.30
2022-09-12T10:00:21.791Z,2.20
2022-09-12T10:05:24.644Z,2.40
2022-09-12T10:10:27.355Z,2.22
2022-09-12T10:15:34.043Z,2.72
2022-09-12T10:20:39.720Z,2.58
2022-09-12T10:25:42.486Z,2.30
2022-09-12T10:30:52.024Z,2.20
2022-09-12T10:35:56.815Z,2.28
2022-09-12T10:41:00.465Z,2.42
2022-09-12T10:46:18.745Z,2.28
2022-09-12T10:51:29.987Z,2.40
2022-09-12T10:56:33.808Z,2.30
2022-09-12T11:01:40.336Z,2.47
2022-09-12T11:06:48.894Z,2.40
2022-09-12T11:11:57.307Z,2.35
2022-09-12T11:17:04.264Z,2.40
2022-09-12T11:22:18.287Z,2.00
2022-09-12T11:27:30.146Z,2.20
2022-09-12T11:32:46.921Z,2.05
2022-09-12T11:38:00.377Z,2.50
2022-09-12T11:43:07.994Z,1.92
2022-09-12T11:48:15.633Z,2.33
2022-09-12T11:53:20.761Z,2.20
2022-09-12T11:58:26.089Z,2.35
2022-09-12T12:03:32.441Z,2.30
2022-09-12T12:08:41.023Z,2.40
2022-09-12T12:13:47.690Z,2.10
2022-09-12T12:18:54.904Z,2.70
2022-09-12T12:24:20.121Z,2.30
2022-09-12T12:29:41.517Z,2.10
2022-09-12T12:34:46.858Z,2.20
2022-09-12T12:40:01.128Z,2.30
2022-09-12T12:45:05.110Z,2.20
2022-09-12T12:50:13.445Z,2.40
2022-09-12T12:55:20.417Z,1.70
2022-09-12T13:00:40.735Z,2.20
2022-09-12T13:05:44.935Z,2.50
2022-09-12T13:10:52.212Z,2.08
2022-09-12T13:15:55.344Z,1.90
2022-09-12T13:21:02.593Z,2.05
2022-09-12T13:26:12.187Z,1.98
2022-09-12T13:31:19.068Z,1.92
2022-09-12T13:36:28.512Z,1.70
2022-09-12T13:41:41.731Z,1.70
2022-09-12T13:46:44.436Z,1.80
2022-09-12T13:51:52.771Z,1.60
2022-09-12T13:56:57.024Z,1.70
2022-09-12T14:01:59.754Z,1.70
2022-09-12T14:07:03.713Z,1.67
2022-09-12T14:12:18.341Z,1.77
2022-09-12T14:17:25.390Z,1.75
2022-09-12T14:22:38.825Z,1.20
2022-09-12T14:27:45.754Z,1.70
2022-09-12T14:33:03.393Z,2.00
2022-09-12T14:38:10.951Z,4.40
2022-09-12T14:43:21.262Z,1.80
2022-09-12T14:48:25.044Z,1.67
2022-09-12T14:53:32.881Z,1.70
2022-09-12T14:58:37.396Z,1.63
2022-09-12T15:03:51.927Z,1.60
2022-09-12T15:08:55.952Z,1.67
2022-09-12T15:14:00.118Z,1.40
2022-09-12T15:19:03.977Z,1.55
2022-09-12T15:24:10.273Z,1.50
2022-09-12T15:29:15.615Z,1.40
2022-09-12T15:34:19.261Z,1.60
2022-09-12T15:39:21.985Z,1.58
2022-09-12T15:44:27.177Z,1.65
2022-09-12T15:49:30.090Z,1.48
2022-09-12T15:54:33.106Z,1.33
2022-09-12T15:59:37.425Z,1.75
2022-09-12T16:04:40.281Z,1.60
2022-09-12T16:09:44.041Z,1.80
2022-09-12T16:14:48.452Z,1.73
2022-09-12T16:19:51.276Z,2.00
2022-09-12T16:24:54.148Z,1.50
2022-09-12T16:29:58.530Z,1.58
2022-09-12T16:35:01.992Z,2.13
2022-09-12T16:40:05.654Z,1.92
2022-09-12T16:45:10.537Z,2.08
2022-09-12T16:50:14.258Z,1.98
2022-09-12T16:55:17.107Z,2.28
2022-09-12T17:00:21.443Z,1.90
2022-09-12T17:05:24.422Z,2.28
2022-09-12T17:10:27.920Z,1.98
2022-09-12T17:15:32.069Z,1.90
2022-09-12T17:20:36.394Z,2.47
2022-09-12T17:25:39.161Z,2.40
2022-09-12T17:30:43.269Z,2.47
2022-09-12T17:35:45.962Z,2.72
2022-09-12T17:40:59.574Z,2.30
2022-09-12T17:46:05.073Z,2.22
2022-09-12T17:51:10.164Z,2.85
2022-09-12T17:56:12.984Z,2.45
2022-09-12T18:01:34.557Z,2.67
2022-09-12T18:06:37.829Z,2.83
2022-09-12T18:11:43.991Z,2.83
2022-09-12T18:16:48.603Z,3.20
2022-09-12T18:21:51.226Z,2.88
2022-09-12T18:32:02.671Z,3.35
2022-09-12T18:37:07.240Z,2.80
2022-09-12T18:42:09.908Z,2.67
2022-09-12T18:47:14.344Z,3.40
2022-09-12T18:52:19.020Z,3.63
2022-09-12T18:57:21.950Z,5.40
2022-09-12T19:02:28.878Z,3.40
2022-09-12T19:07:32.770Z,3.78
2022-09-12T19:12:36.201Z,4.35
2022-09-12T19:22:43.959Z,3.65
2022-09-12T19:27:46.711Z,3.58
2022-09-12T19:32:49.509Z,3.67
2022-09-12T19:37:53.716Z,4.70
2022-09-12T19:42:56.465Z,10.75
2022-09-12T19:47:59.534Z,8.07
2022-09-12T19:53:04.029Z,4.50
2022-09-12T19:58:06.778Z,4.22
2022-09-12T20:03:09.634Z,3.90
2022-09-12T20:08:13.721Z,5.23
2022-09-12T20:13:16.404Z,4.70
2022-09-12T20:18:19.035Z,5.03
2022-09-12T20:23:25.522Z,7.28
2022-09-12T20:28:28.608Z,4.40
2022-09-12T20:33:32.229Z,4.53
2022-09-12T20:38:38.870Z,9.95
2022-09-12T20:43:43.087Z,4.57
2022-09-12T20:48:46.950Z,4.28
2022-09-12T20:53:50.591Z,3.80
2022-09-12T20:58:55.087Z,4.30
2022-09-12T21:03:58.138Z,4.78
2022-09-12T21:09:00.948Z,3.85
2022-09-12T21:14:05.603Z,4.33
2022-09-12T21:19:12.515Z,3.53
2022-09-12T21:24:15.458Z,4.63
2022-09-12T21:29:19.644Z,3.83
2022-09-12T21:34:22.693Z,3.88
2022-09-12T21:39:25.471Z,3.28
2022-09-12T21:44:29.497Z,4.25
2022-09-12T21:49:32.837Z,3.80
2022-09-12T21:54:44.828Z,3.85
2022-09-12T21:59:48.863Z,3.80
2022-09-12T22:04:51.617Z,4.10
2022-09-12T22:09:54.310Z,4.03
2022-09-12T22:14:58.445Z,4.00
2022-09-12T22:20:01.129Z,4.95
2022-09-12T22:25:04.116Z,3.80
2022-09-12T22:30:09.249Z,3.70
2022-09-12T22:35:11.982Z,3.55
2022-09-12T22:40:15.287Z,3.47
2022-09-12T22:45:20.342Z,3.15
2022-09-12T22:50:23.137Z,3.53
2022-09-12T22:55:26.326Z,3.27
2022-09-12T23:00:30.836Z,2.73
2022-09-12T23:05:37.642Z,2.90
2022-09-12T23:10:45.079Z,2.70
2022-09-12T23:15:49.943Z,3.20
2022-09-12T23:20:59.725Z,2.75
2022-09-12T23:26:03.551Z,3.13
2022-09-12T23:31:09.653Z,3.22
2022-09-12T23:36:14.569Z,2.72
2022-09-12T23:41:18.577Z,3.08
2022-09-12T23:46:22.690Z,2.40
2022-09-12T23:51:25.435Z,2.58
2022-09-12T23:56:28.614Z,2.80
